Aviation Digital Data Service (ADDS)

Output produced by METARs form (0139 UTC 31 May 2020)
found at http://aviationweather.gov/metar/data/
 
METAR text: KRNT 310121Z 16008G20KT 2 1/2SM -RA BR SCT013 BKN023 OVC032 12/11 A2992 RMK AO2 LTG DSNT E P0007 T01170106
Conditions at: KRNT (RENTON , WA, US) observed 0121 UTC 31 May 2020
Temperature: 11.7°C (53°F)
Dewpoint: 10.6°C (51°F) [RH = 93%]
Pressure (altimeter): 29.92 inches Hg (1013.3 mb)
Winds: from the SSE (160 degrees) at 9 MPH (8 knots; 4.1 m/s)
gusting to 23 MPH (20 knots; 10.3 m/s)
Visibility: 2.50 miles (4.02 km)
Ceiling: 2300 feet AGL
Clouds: scattered clouds at 1300 feet AGL
broken clouds at 2300 feet AGL
overcast cloud deck at 3200 feet AGL
Weather: -RA BR  (light rain, mist)

METAR text: KRNT 310053Z 16006KT 1 1/2SM RA BR SCT010 BKN014 OVC035 12/11 A2991 RMK AO2 SLP134 P0012 T01220111
Conditions at: KRNT (RENTON , WA, US) observed 0053 UTC 31 May 2020
Temperature: 12.2°C (54°F)
Dewpoint: 11.1°C (52°F) [RH = 93%]
Pressure (altimeter): 29.91 inches Hg (1013.0 mb)
[Sea-level pressure: 1013.4 mb]
Winds: from the SSE (160 degrees) at 7 MPH (6 knots; 3.1 m/s)
Visibility: 1.50 miles (2.41 km)
Ceiling: 1400 feet AGL
Clouds: scattered clouds at 1000 feet AGL
broken clouds at 1400 feet AGL
overcast cloud deck at 3500 feet AGL
Weather: RA BR  (moderate rain, mist)

METAR text: KRNT 310037Z 17006KT 1 3/4SM -RA BR SCT008 BKN012 OVC036 12/11 A2990 RMK AO2 P0009 T01220111
Conditions at: KRNT (RENTON , WA, US) observed 0037 UTC 31 May 2020
Temperature: 12.2°C (54°F)
Dewpoint: 11.1°C (52°F) [RH = 93%]
Pressure (altimeter): 29.90 inches Hg (1012.6 mb)
Winds: from the S (170 degrees) at 7 MPH (6 knots; 3.1 m/s)
Visibility: 1.75 miles (2.82 km)
Ceiling: 1200 feet AGL
Clouds: scattered clouds at 800 feet AGL
broken clouds at 1200 feet AGL
overcast cloud deck at 3600 feet AGL
Weather: -RA BR  (light rain, mist)

METAR text: KRNT 310014Z 16004KT 1 1/2SM RA BR BKN012 BKN024 OVC070 12/11 A2989 RMK AO2 P0005 T01220111
Conditions at: KRNT (RENTON , WA, US) observed 0014 UTC 31 May 2020
Temperature: 12.2°C (54°F)
Dewpoint: 11.1°C (52°F) [RH = 93%]
Pressure (altimeter): 29.89 inches Hg (1012.3 mb)
Winds: from the SSE (160 degrees) at 5 MPH (4 knots; 2.1 m/s)
Visibility: 1.50 miles (2.41 km)
Ceiling: 1200 feet AGL
Clouds: broken clouds at 1200 feet AGL
broken clouds at 2400 feet AGL
overcast cloud deck at 7000 feet AGL
Weather: RA BR  (moderate rain, mist)

METAR text: KRNT 310002Z 17003KT 1 1/2SM RA BR SCT012 BKN020 OVC070 12/11 A2988 RMK AO2 LTG DSNT SE P0003 T01220111
Conditions at: KRNT (RENTON , WA, US) observed 0002 UTC 31 May 2020
Temperature: 12.2°C (54°F)
Dewpoint: 11.1°C (52°F) [RH = 93%]
Pressure (altimeter): 29.88 inches Hg (1011.9 mb)
Winds: from the S (170 degrees) at 3 MPH (3 knots; 1.5 m/s)
Visibility: 1.50 miles (2.41 km)
Ceiling: 2000 feet AGL
Clouds: scattered clouds at 1200 feet AGL
broken clouds at 2000 feet AGL
overcast cloud deck at 7000 feet AGL
Weather: RA BR  (moderate rain, mist)

METAR text: KRNT 302353Z 21004KT 1 1/2SM TSRA BR FEW013 BKN019 OVC031 12/11 A2987 RMK AO2 LTG DSNT SE RAB15 TSB41 SLP120 P0008 60013 T01220111 10128 20122 50015
Conditions at: KRNT (RENTON , WA, US) observed 2353 UTC 30 May 2020
Temperature: 12.2°C (54°F)
Dewpoint: 11.1°C (52°F) [RH = 93%]
Pressure (altimeter): 29.87 inches Hg (1011.6 mb)
[Sea-level pressure: 1012.0 mb]
Winds: from the SSW (210 degrees) at 5 MPH (4 knots; 2.1 m/s)
Visibility: 1.50 miles (2.41 km)
Ceiling: 1900 feet AGL
Clouds: few clouds at 1300 feet AGL
broken clouds at 1900 feet AGL
overcast cloud deck at 3100 feet AGL
Weather: TSRA BR  (rain associated with thunderstorm(s), mist)

METAR text: KRNT 302349Z 18004KT 1 1/4SM TSRA BR SCT015 BKN022 OVC029 12/11 A2987 RMK AO2 LTG DSNT SE RAB15 TSB41 P0008
Conditions at: KRNT (RENTON , WA, US) observed 2349 UTC 30 May 2020
Temperature: 12.0°C (54°F)
Dewpoint: 11.0°C (52°F) [RH = 94%]
Pressure (altimeter): 29.87 inches Hg (1011.6 mb)
Winds: from the S (180 degrees) at 5 MPH (4 knots; 2.1 m/s)
Visibility: 1.25 miles (2.01 km)
Ceiling: 2200 feet AGL
Clouds: scattered clouds at 1500 feet AGL
broken clouds at 2200 feet AGL
overcast cloud deck at 2900 feet AGL
Weather: TSRA BR  (rain associated with thunderstorm(s), mist)

METAR text: KRNT 302341Z 21006KT 2SM TSRA BR SCT012 BKN020 OVC031 12/11 A2987 RMK AO2 LTG DSNT SE RAB15 TSB41 P0004 T01220111
Conditions at: KRNT (RENTON , WA, US) observed 2341 UTC 30 May 2020
Temperature: 12.2°C (54°F)
Dewpoint: 11.1°C (52°F) [RH = 93%]
Pressure (altimeter): 29.87 inches Hg (1011.6 mb)
Winds: from the SSW (210 degrees) at 7 MPH (6 knots; 3.1 m/s)
Visibility: 2.00 miles (3.22 km)
Ceiling: 2000 feet AGL
Clouds: scattered clouds at 1200 feet AGL
broken clouds at 2000 feet AGL
overcast cloud deck at 3100 feet AGL
Weather: TSRA BR  (rain associated with thunderstorm(s), mist)